Eaton, Colorado
Current Conditions -  °F | °C
As of 1:55 AM on Sunday 26 Oct 2014 (Local Time) from KGXY Reporting Station
Clear Clear  
Wind Chill:   Ceiling: Unl
Heat Index:   Visibility: 10mi
Dew Point: -4°   Wind: 7mph
Humidity: 60%   Direction: 320°NW
Pressure: 29.92"   Gusts: NA
Location:  40.53°N, 104.71°W
Report Text: KGXY 260755Z AUTO 32006KT 10SM CLR 03/M04 A2992 RMK AO1
Loading
Personal Weather Stations






























Interactive Weather Map
Tropical Storm Tracking
New forecast layout! Learn more

10-Day Weather Forecast

Advertisements
Track Severe Weather on mobile